Time;durP1;ratioP1;P1;durP2;ratioP2;P2;SDS_P1;SDS_P2;PMS_P1;PMS_P2;Temp;Humidity;BMP_temperature;BMP_pressure;BME280_temperature;BME280_humidity;BME280_pressure;Samples;Min_cycle;Max_cycle;Signal;HPM_P1;HPM_P2
2022/10/25 00:01:02;;;;;;;17.95;12.52;;;13.40;81.00;;;;;;5045169;28;20047;-78
2022/10/25 00:03:28;;;;;;;22.98;12.68;;;13.40;81.40;;;;;;5048731;28;20033;-78
2022/10/25 00:05:54;;;;;;;17.60;12.40;;;13.30;81.10;;;;;;5023866;28;20527;-78
2022/10/25 00:08:19;;;;;;;18.70;12.65;;;13.30;81.10;;;;;;5015659;28;20040;-78
2022/10/25 00:10:45;;;;;;;21.30;13.35;;;13.30;81.60;;;;;;5016845;28;20120;-78
2022/10/25 00:13:11;;;;;;;17.90;12.52;;;13.30;81.20;;;;;;5042695;28;20108;-78
2022/10/25 00:15:36;;;;;;;16.60;11.27;;;13.30;81.30;;;;;;5031860;28;20037;-78
2022/10/25 00:18:02;;;;;;;15.13;12.25;;;13.30;81.30;;;;;;5034637;28;20041;-78
2022/10/25 00:20:28;;;;;;;16.73;11.48;;;13.30;81.40;;;;;;5051872;28;20137;-78
2022/10/25 00:22:54;;;;;;;20.35;12.25;;;13.30;81.40;;;;;;5040647;28;20047;-78
2022/10/25 00:25:19;;;;;;;17.13;12.15;;;13.30;81.50;;;;;;5032334;28;20077;-78
2022/10/25 00:27:45;;;;;;;18.90;11.45;;;13.30;81.50;;;;;;5015411;28;20059;-78
2022/10/25 00:30:12;;;;;;;14.93;11.13;;;13.30;81.50;;;;;;5015265;28;20045;-78
2022/10/25 00:32:38;;;;;;;13.38;10.38;;;13.30;81.50;;;;;;5031803;28;20076;-78
2022/10/25 00:35:03;;;;;;;14.25;9.98;;;13.30;81.50;;;;;;5015382;28;20046;-78
2022/10/25 00:37:29;;;;;;;15.18;9.68;;;13.30;81.50;;;;;;5031683;28;20503;-78
2022/10/25 00:39:55;;;;;;;15.60;12.07;;;13.30;81.50;;;;;;5039763;28;20060;-78
2022/10/25 00:42:23;;;;;;;18.45;11.60;;;13.30;81.50;;;;;;5015354;28;20049;-78
2022/10/25 00:44:52;;;;;;;17.63;11.27;;;13.30;81.60;;;;;;5031090;28;20120;-78
2022/10/25 00:47:21;;;;;;;16.98;11.65;;;13.30;81.70;;;;;;5031547;28;20041;-78
2022/10/25 00:49:59;;;;;;;17.05;11.38;;;13.30;81.70;;;;;;5036339;28;20052;-78
2022/10/25 00:52:27;;;;;;;14.68;10.52;;;13.30;81.80;;;;;;5031493;28;20080;-78
2022/10/25 00:54:53;;;;;;;15.93;11.65;;;13.30;81.80;;;;;;5031317;28;20500;-78
2022/10/25 00:57:31;;;;;;;15.82;11.15;;;13.30;81.90;;;;;;5031965;28;20397;-78
2022/10/25 00:59:58;;;;;;;17.67;10.13;;;13.30;82.00;;;;;;5027189;28;20039;-74
2022/10/25 01:02:24;;;;;;;14.35;10.75;;;13.30;82.00;;;;;;5011604;28;20489;-74
2022/10/25 01:04:51;;;;;;;13.27;9.52;;;13.30;82.00;;;;;;5035360;28;20154;-74
2022/10/25 01:07:17;;;;;;;17.58;11.05;;;13.30;82.10;;;;;;5054550;28;20049;-74
2022/10/25 01:09:43;;;;;;;16.55;10.60;;;13.30;82.10;;;;;;5042694;28;20049;-74
2022/10/25 01:12:08;;;;;;;15.52;10.02;;;13.30;82.20;;;;;;5046416;28;20057;-75
2022/10/25 01:14:36;;;;;;;13.80;9.98;;;13.30;82.30;;;;;;5019990;28;20125;-74
2022/10/25 01:17:11;;;;;;;14.88;10.32;;;13.40;82.40;;;;;;5046579;28;20053;-74
2022/10/25 01:19:45;;;;;;;19.00;11.52;;;13.40;82.50;;;;;;5052592;28;20125;-74
2022/10/25 01:22:18;;;;;;;17.45;10.82;;;13.40;82.60;;;;;;5054485;28;20048;-74
2022/10/25 01:25:15;;;;;;;20.30;11.25;;;13.40;82.70;;;;;;5028774;28;20052;-74
2022/10/25 01:28:01;;;;;;;15.93;9.63;;;13.40;82.70;;;;;;5054432;28;20044;-74
2022/10/25 01:30:51;;;;;;;14.00;10.45;;;13.40;82.70;;;;;;5033752;28;20051;-74
2022/10/25 01:33:23;;;;;;;15.73;10.07;;;13.40;82.60;;;;;;5034619;28;20176;-74
2022/10/25 01:36:26;;;;;;;13.48;9.23;;;13.40;82.60;;;;;;5027513;28;20037;-74
2022/10/25 01:39:27;;;;;;;14.00;9.45;;;13.50;82.70;;;;;;5046237;28;20049;-74
2022/10/25 01:42:05;;;;;;;14.35;10.02;;;13.50;82.70;;;;;;5028409;28;20137;-74
2022/10/25 01:44:48;;;;;;;11.65;8.27;;;13.50;82.60;;;;;;5034824;28;20042;-74
2022/10/25 01:47:21;;;;;;;15.75;9.18;;;13.50;82.60;;;;;;5014342;28;20049;-74
2022/10/25 01:50:03;;;;;;;16.05;10.30;;;13.50;82.60;;;;;;5043852;28;20040;-74
2022/10/25 01:52:29;;;;;;;12.45;8.82;;;13.50;82.60;;;;;;4998632;28;20505;-74
2022/10/25 01:54:55;;;;;;;14.57;8.93;;;13.50;82.60;;;;;;5017306;28;20033;-74
2022/10/25 01:57:30;;;;;;;14.13;8.75;;;13.50;82.50;;;;;;5036931;28;20032;-74
2022/10/25 02:00:13;;;;;;;14.30;9.50;;;13.60;82.70;;;;;;5051675;28;20116;-74
2022/10/25 02:03:07;;;;;;;15.63;8.57;;;13.60;82.60;;;;;;5014936;28;20108;-74
2022/10/25 02:05:41;;;;;;;16.33;9.48;;;13.60;82.60;;;;;;5035389;28;20047;-74
2022/10/25 02:08:32;;;;;;;13.60;9.75;;;13.60;82.60;;;;;;5040474;28;20361;-74
2022/10/25 02:11:07;;;;;;;16.20;9.77;;;13.60;82.60;;;;;;5049884;28;20403;-74
2022/10/25 02:13:47;;;;;;;16.70;10.13;;;13.60;82.60;;;;;;5049076;28;20500;-74
2022/10/25 02:16:19;;;;;;;16.98;9.65;;;13.60;82.70;;;;;;5025104;28;20708;-74
2022/10/25 02:18:49;;;;;;;15.77;9.02;;;13.60;82.70;;;;;;5052174;28;20044;-74
2022/10/25 02:21:17;;;;;;;14.40;8.63;;;13.70;82.80;;;;;;5027403;28;20099;-74
2022/10/25 02:23:44;;;;;;;16.98;9.43;;;13.70;82.80;;;;;;5033060;28;20053;-74
2022/10/25 02:26:11;;;;;;;15.57;9.40;;;13.70;82.70;;;;;;5044955;28;20052;-74
2022/10/25 02:28:39;;;;;;;12.88;8.77;;;13.70;82.70;;;;;;5021031;28;20608;-74
2022/10/25 02:31:12;;;;;;;15.27;9.00;;;13.70;82.70;;;;;;5030844;28;20045;-74
2022/10/25 02:33:38;;;;;;;14.18;7.95;;;13.70;82.60;;;;;;5032853;28;20085;-74
2022/10/25 02:36:14;;;;;;;11.82;9.23;;;13.70;82.50;;;;;;5017686;28;20468;-74
2022/10/25 02:38:42;;;;;;;13.88;9.18;;;13.70;82.50;;;;;;5037397;28;20154;-74
2022/10/25 02:41:08;;;;;;;17.33;9.18;;;13.70;82.40;;;;;;5063297;28;20041;-74
2022/10/25 02:43:33;;;;;;;14.52;9.40;;;13.70;82.40;;;;;;5032818;28;20083;-74
2022/10/25 02:46:03;;;;;;;14.02;10.00;;;13.70;82.40;;;;;;5034936;28;20373;-78
2022/10/25 02:48:29;;;;;;;15.00;8.82;;;13.70;82.40;;;;;;5036368;28;20476;-78
2022/10/25 02:50:55;;;;;;;15.50;9.48;;;13.70;82.40;;;;;;5051769;28;20183;-78
2022/10/25 02:53:20;;;;;;;15.23;8.95;;;13.70;82.40;;;;;;5016743;28;20077;-78
2022/10/25 02:55:46;;;;;;;13.55;8.65;;;13.80;82.40;;;;;;5032815;28;20038;-74
2022/10/25 02:58:12;;;;;;;11.85;7.50;;;13.80;82.40;;;;;;5049878;28;20048;-74
2022/10/25 03:00:37;;;;;;;13.05;8.85;;;13.70;82.30;;;;;;5016429;28;20044;-74
2022/10/25 03:03:03;;;;;;;11.52;8.93;;;13.80;82.30;;;;;;5016164;28;20067;-74
2022/10/25 03:05:28;;;;;;;17.15;9.85;;;13.80;82.30;;;;;;5034724;28;20075;-74
2022/10/25 03:07:54;;;;;;;16.95;8.93;;;13.80;82.20;;;;;;5046808;28;20106;-74
2022/10/25 03:10:20;;;;;;;13.38;8.48;;;13.80;82.20;;;;;;5052086;28;20095;-74
2022/10/25 03:12:45;;;;;;;14.90;8.77;;;13.70;82.10;;;;;;5038713;28;20065;-74
2022/10/25 03:15:11;;;;;;;16.70;8.77;;;13.80;82.10;;;;;;5016878;28;20049;-74
2022/10/25 03:17:37;;;;;;;13.98;8.85;;;13.70;82.00;;;;;;5043048;28;20035;-74
2022/10/25 03:20:02;;;;;;;15.20;10.18;;;13.70;81.90;;;;;;5034103;28;20132;-74
2022/10/25 03:22:28;;;;;;;11.95;7.88;;;13.70;81.90;;;;;;5041522;28;20044;-74
2022/10/25 03:24:54;;;;;;;11.93;7.00;;;13.70;81.90;;;;;;5039944;28;20041;-72
2022/10/25 03:27:19;;;;;;;11.98;8.82;;;13.70;81.90;;;;;;5033089;28;20037;-73
2022/10/25 03:29:45;;;;;;;14.75;8.50;;;13.70;81.90;;;;;;5031053;28;20041;-73
2022/10/25 03:32:11;;;;;;;15.05;9.15;;;13.70;82.00;;;;;;5042015;28;20044;-73
2022/10/25 03:34:36;;;;;;;13.07;8.43;;;13.70;82.10;;;;;;5031723;28;20448;-73
2022/10/25 03:37:02;;;;;;;13.80;8.93;;;13.70;82.10;;;;;;5034195;28;20037;-73
2022/10/25 03:39:27;;;;;;;13.35;8.10;;;13.70;82.20;;;;;;5022905;28;20476;-73
2022/10/25 03:41:53;;;;;;;14.30;8.20;;;13.70;82.30;;;;;;5034053;28;20507;-73
2022/10/25 03:44:19;;;;;;;15.05;9.38;;;13.70;82.30;;;;;;5063080;28;20044;-74
2022/10/25 03:46:44;;;;;;;14.27;8.52;;;13.70;82.30;;;;;;5033655;28;20036;-74
2022/10/25 03:49:10;;;;;;;10.98;8.40;;;13.70;82.40;;;;;;5038932;28;20485;-74
2022/10/25 03:51:36;;;;;;;18.77;10.20;;;13.70;82.40;;;;;;5015381;28;20504;-75
2022/10/25 03:54:01;;;;;;;22.77;10.15;;;13.70;82.50;;;;;;5064881;28;20037;-74
2022/10/25 03:56:27;;;;;;;15.48;9.63;;;13.70;82.50;;;;;;5032895;28;20045;-74
2022/10/25 03:58:53;;;;;;;12.48;8.25;;;13.70;82.60;;;;;;5035039;28;20038;-74
2022/10/25 04:01:18;;;;;;;13.82;9.23;;;13.70;82.60;;;;;;5048444;28;20064;-75
2022/10/25 04:03:44;;;;;;;15.00;9.25;;;13.70;82.70;;;;;;5020517;28;20128;-75
2022/10/25 04:06:10;;;;;;;13.13;8.38;;;13.70;82.70;;;;;;5031287;28;20120;-74
2022/10/25 04:08:37;;;;;;;12.82;9.95;;;13.80;82.80;;;;;;5035871;28;20091;-74
2022/10/25 04:11:03;;;;;;;19.35;10.70;;;13.70;82.80;;;;;;5051418;28;20048;-75
2022/10/25 04:13:28;;;;;;;17.42;9.50;;;13.70;82.80;;;;;;5023415;28;20057;-75
2022/10/25 04:15:54;;;;;;;14.00;9.60;;;13.70;82.90;;;;;;5031298;28;20084;-75
2022/10/25 04:18:20;;;;;;;14.77;8.85;;;13.70;82.90;;;;;;5023755;28;20090;-75
2022/10/25 04:20:46;;;;;;;14.73;9.23;;;13.70;82.90;;;;;;5024223;28;20473;-75
2022/10/25 04:23:11;;;;;;;20.73;11.27;;;13.80;83.00;;;;;;5035158;28;20060;-75
2022/10/25 04:25:37;;;;;;;21.08;10.68;;;13.80;83.00;;;;;;5031602;28;20045;-75
2022/10/25 04:28:03;;;;;;;20.00;11.35;;;13.80;83.00;;;;;;5020334;28;20098;-74
2022/10/25 04:30:29;;;;;;;13.45;8.80;;;13.80;83.10;;;;;;5068036;28;20098;-74
2022/10/25 04:32:57;;;;;;;15.10;9.27;;;13.80;83.10;;;;;;5038789;28;20041;-78
2022/10/25 04:35:23;;;;;;;16.20;9.43;;;13.80;83.10;;;;;;5031673;28;20041;-79
2022/10/25 04:37:50;;;;;;;20.15;9.60;;;13.80;83.10;;;;;;5031420;28;20081;-79
2022/10/25 04:40:17;;;;;;;15.32;9.18;;;13.80;83.10;;;;;;5036701;28;20044;-78
2022/10/25 04:42:42;;;;;;;14.88;9.43;;;13.80;83.10;;;;;;5066118;28;20496;-78
2022/10/25 04:45:10;;;;;;;18.92;9.13;;;13.80;83.00;;;;;;5040295;28;20044;-78
2022/10/25 04:47:36;;;;;;;20.30;9.40;;;13.80;83.00;;;;;;5052347;28;20041;-78
2022/10/25 04:50:02;;;;;;;14.35;8.80;;;13.80;82.90;;;;;;5054574;28;20041;-78
2022/10/25 04:52:28;;;;;;;15.43;7.55;;;13.80;82.80;;;;;;5038863;28;20049;-78
2022/10/25 04:54:54;;;;;;;16.42;7.68;;;13.80;82.70;;;;;;5055087;28;20562;-78
2022/10/25 04:57:20;;;;;;;17.40;8.65;;;13.80;82.60;;;;;;5037167;28;20064;-78
2022/10/25 04:59:46;;;;;;;14.93;6.70;;;13.80;82.50;;;;;;5035057;28;20037;-79
2022/10/25 05:02:13;;;;;;;14.23;7.57;;;13.80;82.40;;;;;;5049519;28;20038;-74
2022/10/25 05:04:38;;;;;;;16.33;8.05;;;13.80;82.30;;;;;;5000357;28;20037;-74
2022/10/25 05:07:04;;;;;;;16.25;7.93;;;13.80;82.30;;;;;;5031550;28;20045;-75
2022/10/25 05:09:30;;;;;;;14.05;7.35;;;13.80;82.20;;;;;;5051324;28;20080;-74
2022/10/25 05:11:55;;;;;;;13.90;7.15;;;13.70;82.10;;;;;;5034364;28;20052;-82
2022/10/25 05:14:21;;;;;;;14.30;7.80;;;13.70;82.00;;;;;;5028615;28;20087;-82
2022/10/25 05:16:47;;;;;;;13.45;7.07;;;13.70;82.00;;;;;;5055413;28;20106;-82
2022/10/25 05:19:12;;;;;;;13.65;6.82;;;13.70;81.90;;;;;;5038435;28;20041;-82
2022/10/25 05:21:38;;;;;;;12.02;6.95;;;13.70;81.90;;;;;;5021897;28;20052;-82
2022/10/25 05:24:04;;;;;;;14.48;7.63;;;13.70;82.00;;;;;;5016696;28;20040;-81
2022/10/25 05:26:30;;;;;;;12.75;7.55;;;13.60;82.00;;;;;;5020288;28;20040;-82
2022/10/25 05:28:56;;;;;;;11.43;6.88;;;13.60;82.10;;;;;;5019237;28;20550;-81
2022/10/25 05:31:24;;;;;;;17.25;7.75;;;13.60;82.20;;;;;;5016958;28;20112;-81
2022/10/25 05:33:51;;;;;;;14.75;7.10;;;13.60;82.30;;;;;;5032846;28;20048;-81
2022/10/25 05:36:17;;;;;;;11.68;6.43;;;13.60;82.40;;;;;;5055085;28;20045;-82
2022/10/25 05:38:44;;;;;;;13.75;6.40;;;13.60;82.40;;;;;;5021520;28;20041;-82
2022/10/25 05:41:12;;;;;;;12.55;5.72;;;13.60;82.40;;;;;;5018201;28;20041;-82
2022/10/25 05:43:38;;;;;;;11.70;6.07;;;13.60;82.40;;;;;;5024469;28;20098;-82
2022/10/25 05:46:13;;;;;;;13.32;5.80;;;13.60;82.30;;;;;;5018108;28;20443;-81
2022/10/25 05:48:40;;;;;;;10.48;5.35;;;13.60;82.30;;;;;;5034895;28;20067;-81
2022/10/25 05:51:10;;;;;;;11.05;5.88;;;13.50;82.20;;;;;;5017510;28;20045;-81
2022/10/25 05:53:35;;;;;;;11.07;5.50;;;13.50;82.20;;;;;;5034306;28;20044;-81
2022/10/25 05:56:01;;;;;;;11.65;5.80;;;13.50;82.20;;;;;;5035026;28;20040;-82
2022/10/25 05:58:27;;;;;;;15.88;6.13;;;13.50;82.20;;;;;;5054698;28;20037;-79
2022/10/25 06:00:52;;;;;;;12.45;5.75;;;13.50;82.10;;;;;;5047380;28;20886;-80
2022/10/25 06:03:18;;;;;;;14.35;6.20;;;13.50;82.10;;;;;;5001471;28;20092;-80
2022/10/25 06:05:44;;;;;;;11.88;5.88;;;13.50;82.10;;;;;;5017715;28;20069;-80
2022/10/25 06:08:09;;;;;;;11.35;6.20;;;13.50;82.10;;;;;;5034417;28;20037;-80
2022/10/25 06:10:35;;;;;;;18.23;6.82;;;13.50;82.00;;;;;;5017611;28;20041;-80
2022/10/25 06:13:01;;;;;;;14.65;6.50;;;13.40;82.00;;;;;;5017304;28;20049;-80
2022/10/25 06:15:26;;;;;;;15.30;7.75;;;13.40;82.00;;;;;;5017978;28;20095;-81
2022/10/25 06:17:52;;;;;;;12.70;6.07;;;13.40;82.00;;;;;;5017785;28;20049;-81
2022/10/25 06:20:17;;;;;;;11.40;6.57;;;13.40;82.10;;;;;;5001426;28;20519;-81
2022/10/25 06:22:43;;;;;;;14.55;7.13;;;13.30;82.10;;;;;;5001070;28;20056;-81
2022/10/25 06:25:09;;;;;;;17.40;7.82;;;13.40;82.20;;;;;;5001081;28;20042;-81
2022/10/25 06:27:35;;;;;;;15.18;8.18;;;13.30;82.30;;;;;;5033766;28;20042;-81
2022/10/25 06:30:01;;;;;;;11.82;6.95;;;13.40;82.40;;;;;;5018215;28;20037;-81
2022/10/25 06:32:27;;;;;;;13.55;7.57;;;13.40;82.50;;;;;;5050699;28;20461;-81
2022/10/25 06:34:53;;;;;;;21.65;8.38;;;13.30;82.60;;;;;;5033690;28;20064;-81
2022/10/25 06:37:18;;;;;;;16.95;7.38;;;13.30;82.60;;;;;;5033634;28;20034;-81
2022/10/25 06:39:44;;;;;;;20.63;8.15;;;13.30;82.70;;;;;;5000695;28;20400;-81
2022/10/25 06:42:10;;;;;;;14.27;7.68;;;13.30;82.80;;;;;;5017407;28;20037;-82
2022/10/25 06:44:35;;;;;;;18.88;7.88;;;13.40;83.00;;;;;;5000869;28;20041;-82
2022/10/25 06:47:01;;;;;;;18.80;7.70;;;13.30;83.00;;;;;;5017312;28;20047;-81
2022/10/25 06:49:27;;;;;;;15.40;6.82;;;13.30;83.00;;;;;;5000792;28;20045;-82
2022/10/25 06:51:53;;;;;;;14.98;7.53;;;13.30;83.10;;;;;;5067501;28;20053;-82
2022/10/25 06:54:19;;;;;;;17.98;7.72;;;13.30;83.20;;;;;;5053446;28;20083;-81
2022/10/25 06:56:44;;;;;;;16.40;8.82;;;13.30;83.20;;;;;;5053520;28;20129;-81
2022/10/25 06:59:10;;;;;;;20.73;7.95;;;13.30;83.20;;;;;;5009283;28;20048;-81
2022/10/25 07:01:36;;;;;;;20.35;7.78;;;13.30;83.30;;;;;;5013989;28;20033;-81
2022/10/25 07:04:02;;;;;;;17.65;7.63;;;13.30;83.30;;;;;;5053109;28;20132;-81
2022/10/25 07:06:34;;;;;;;19.42;8.05;;;13.30;83.40;;;;;;5052958;28;20084;-81
2022/10/25 07:09:00;;;;;;;16.73;7.50;;;13.30;83.50;;;;;;5036177;28;20618;-82
2022/10/25 07:11:29;;;;;;;20.98;8.27;;;13.40;83.70;;;;;;5069794;28;20048;-81
2022/10/25 07:13:57;;;;;;;16.67;7.25;;;13.30;83.70;;;;;;5069509;28;20135;-79
2022/10/25 07:16:24;;;;;;;14.77;8.13;;;13.40;83.80;;;;;;5053325;28;20056;-79
2022/10/25 07:18:50;;;;;;;19.23;7.40;;;13.40;83.80;;;;;;5036428;28;20396;-80
2022/10/25 07:21:21;;;;;;;24.23;7.88;;;13.40;83.80;;;;;;5036105;28;20045;-80
2022/10/25 07:23:48;;;;;;;19.85;8.13;;;13.40;84.00;;;;;;5069706;28;20128;-79
2022/10/25 07:26:17;;;;;;;17.83;8.55;;;13.40;84.00;;;;;;5036516;28;20467;-80
2022/10/25 07:28:45;;;;;;;24.20;9.93;;;13.40;84.10;;;;;;5036181;28;20514;-80
2022/10/25 07:31:13;;;;;;;22.52;10.00;;;13.40;84.20;;;;;;5035971;28;20132;-80
2022/10/25 07:33:39;;;;;;;25.85;9.13;;;13.50;84.40;;;;;;5052818;28;20507;-80
2022/10/25 07:36:05;;;;;;;18.55;10.23;;;13.50;84.40;;;;;;5036311;28;20075;-81
2022/10/25 07:38:30;;;;;;;25.42;10.55;;;13.50;84.60;;;;;;5035800;28;20036;-81
2022/10/25 07:40:57;;;;;;;23.38;11.77;;;13.50;84.70;;;;;;5019339;28;20094;-81
2022/10/25 07:43:25;;;;;;;28.17;12.60;;;13.60;84.80;;;;;;5069691;28;20029;-82
2022/10/25 07:45:51;;;;;;;25.65;12.20;;;13.60;85.00;;;;;;5052609;28;20396;-82
2022/10/25 07:48:17;;;;;;;19.30;9.52;;;13.60;85.10;;;;;;5052328;28;20040;-78
2022/10/25 07:50:43;;;;;;;24.02;11.60;;;13.60;85.10;;;;;;5052268;28;20044;-78
2022/10/25 07:53:08;;;;;;;21.80;10.88;;;13.70;85.10;;;;;;5046097;28;20163;-77
2022/10/25 07:55:34;;;;;;;21.65;11.63;;;13.80;85.60;;;;;;5032478;28;20034;-77
2022/10/25 07:58:01;;;;;;;24.58;11.43;;;13.80;85.20;;;;;;5032242;28;20042;-77
2022/10/25 08:00:27;;;;;;;24.15;12.25;;;13.80;85.30;;;;;;5032254;28;20049;-77
2022/10/25 08:02:53;;;;;;;22.35;12.40;;;13.90;85.40;;;;;;5032534;28;20396;-78
2022/10/25 08:05:18;;;;;;;24.20;12.38;;;13.90;85.40;;;;;;5032215;28;20072;-79
2022/10/25 08:07:44;;;;;;;21.85;11.23;;;13.90;85.40;;;;;;5034945;28;20048;-78
2022/10/25 08:10:10;;;;;;;25.38;13.30;;;14.00;85.30;;;;;;5052638;28;20041;-77
2022/10/25 08:12:36;;;;;;;25.10;12.52;;;14.00;85.20;;;;;;5051797;28;20084;-78
2022/10/25 08:15:01;;;;;;;24.38;13.38;;;14.10;85.10;;;;;;5051452;28;20152;-77
2022/10/25 08:17:27;;;;;;;20.02;11.50;;;14.10;85.00;;;;;;5068503;28;20033;-77
2022/10/25 08:19:53;;;;;;;25.92;11.65;;;14.10;85.00;;;;;;5068490;28;20036;-78
2022/10/25 08:22:18;;;;;;;21.88;11.70;;;14.20;85.00;;;;;;5047912;28;20043;-78
2022/10/25 08:24:44;;;;;;;22.30;11.45;;;14.20;85.00;;;;;;5048849;28;20472;-78
2022/10/25 08:27:10;;;;;;;20.73;11.60;;;14.30;85.30;;;;;;5047204;28;20536;-78
2022/10/25 08:29:35;;;;;;;16.45;11.20;;;14.40;85.40;;;;;;5029162;28;20116;-78
2022/10/25 08:32:01;;;;;;;21.80;11.48;;;14.50;85.50;;;;;;5031697;28;20103;-78
2022/10/25 08:34:27;;;;;;;17.17;10.80;;;14.60;85.20;;;;;;5031809;28;20120;-78
2022/10/25 08:36:53;;;;;;;16.88;9.55;;;14.70;84.80;;;;;;5048150;28;20413;-78
2022/10/25 08:39:18;;;;;;;16.83;10.02;;;14.70;84.30;;;;;;5041020;28;20037;-78
2022/10/25 08:41:52;;;;;;;21.17;10.77;;;14.80;84.10;;;;;;5015088;28;20068;-78
2022/10/25 08:44:52;;;;;;;19.67;10.73;;;14.90;83.80;;;;;;5048736;28;20064;-78
2022/10/25 08:47:32;;;;;;;22.08;10.10;;;14.90;83.90;;;;;;5028441;28;20042;-78
2022/10/25 08:50:01;;;;;;;18.65;9.15;;;15.00;83.40;;;;;;5012104;28;20367;-74
2022/10/25 08:52:42;;;;;;;19.60;10.18;;;15.00;83.10;;;;;;5031881;28;20110;-77
2022/10/25 08:55:15;;;;;;;19.08;9.15;;;15.10;82.90;;;;;;5068330;28;20072;-78
2022/10/25 08:57:45;;;;;;;15.55;8.77;;;15.10;83.30;;;;;;5040828;28;20115;-78
2022/10/25 09:00:21;;;;;;;20.95;10.10;;;15.10;82.90;;;;;;5051720;28;20068;-78
2022/10/25 09:03:00;;;;;;;17.95;8.88;;;15.30;82.80;;;;;;5050923;28;20453;-78
2022/10/25 09:05:34;;;;;;;16.45;8.90;;;15.30;82.60;;;;;;5044121;28;20531;-78
2022/10/25 09:08:25;;;;;;;17.17;8.73;;;15.40;82.20;;;;;;5046910;28;20048;-78
2022/10/25 09:11:02;;;;;;;18.55;8.50;;;15.40;81.90;;;;;;5052061;28;20108;-78
2022/10/25 09:13:34;;;;;;;12.82;7.80;;;15.50;81.80;;;;;;5029090;28;20101;-74
2022/10/25 09:16:17;;;;;;;16.35;8.38;;;15.50;81.60;;;;;;5040571;28;20044;-74
2022/10/25 09:18:42;;;;;;;16.42;9.02;;;15.60;81.30;;;;;;5062137;28;20076;-74
2022/10/25 09:21:16;;;;;;;14.65;8.45;;;15.70;81.20;;;;;;5037938;28;20519;-74
2022/10/25 09:23:47;;;;;;;19.15;7.93;;;15.70;80.90;;;;;;5031064;28;20033;-74
2022/10/25 09:26:31;;;;;;;17.30;8.15;;;15.80;80.90;;;;;;5023564;28;20072;-73
2022/10/25 09:29:31;;;;;;;15.80;7.78;;;15.80;80.40;;;;;;5039935;28;20045;-74
2022/10/25 09:31:59;;;;;;;17.70;7.88;;;15.90;80.10;;;;;;5036647;28;20045;-73
2022/10/25 09:34:31;;;;;;;15.55;7.38;;;15.90;79.90;;;;;;5058139;28;20120;-73
2022/10/25 09:37:22;;;;;;;18.60;8.32;;;16.00;79.70;;;;;;5064535;28;20487;-73
2022/10/25 09:39:53;;;;;;;13.48;7.18;;;16.00;79.40;;;;;;5014408;28;20041;-74
2022/10/25 09:42:33;;;;;;;14.95;7.38;;;16.00;79.20;;;;;;5038036;28;20528;-74
2022/10/25 09:45:18;;;;;;;17.40;6.90;;;16.00;78.70;;;;;;5034257;28;20505;-73
2022/10/25 09:47:50;;;;;;;12.80;6.57;;;16.00;78.50;;;;;;5052830;28;20037;-74
2022/10/25 09:50:34;;;;;;;13.93;7.95;;;16.10;78.90;;;;;;5037552;28;20186;-73
2022/10/25 09:53:09;;;;;;;13.50;7.05;;;16.10;78.60;;;;;;5031397;28;20045;-74
2022/10/25 09:55:41;;;;;;;14.13;7.65;;;16.10;78.80;;;;;;5034205;28;20033;-73
2022/10/25 09:58:40;;;;;;;14.52;7.15;;;16.10;78.20;;;;;;5001120;28;20052;-74
2022/10/25 10:01:06;;;;;;;11.82;6.35;;;16.10;77.90;;;;;;5030833;28;20581;-73
2022/10/25 10:03:34;;;;;;;18.17;6.95;;;16.10;78.10;;;;;;5040673;28;20148;-73
2022/10/25 10:06:20;;;;;;;14.68;6.28;;;16.10;78.10;;;;;;5034238;28;20037;-74
2022/10/25 10:08:55;;;;;;;12.38;5.70;;;16.10;77.80;;;;;;5035925;28;20042;-74
2022/10/25 10:11:22;;;;;;;9.93;5.60;;;16.10;78.00;;;;;;5027605;28;20496;-74
2022/10/25 10:13:59;;;;;;;17.02;6.50;;;16.10;78.20;;;;;;5037366;28;20061;-74
2022/10/25 10:16:35;;;;;;;13.70;6.00;;;16.10;78.00;;;;;;5039865;28;20040;-74
2022/10/25 10:19:21;;;;;;;12.73;5.72;;;16.10;78.00;;;;;;5070544;28;20392;-74
2022/10/25 10:21:59;;;;;;;9.38;5.28;;;16.20;77.70;;;;;;5029775;28;20053;-74
2022/10/25 10:24:37;;;;;;;11.80;5.60;;;16.20;77.60;;;;;;5043129;28;20072;-74
2022/10/25 10:27:26;;;;;;;12.30;5.63;;;16.10;77.50;;;;;;5038360;28;20045;-76
2022/10/25 10:29:58;;;;;;;11.88;5.63;;;16.20;77.10;;;;;;5014246;28;20085;-72
2022/10/25 10:32:36;;;;;;;10.40;5.80;;;16.20;77.30;;;;;;5060105;28;20404;-72
2022/10/25 10:35:05;;;;;;;9.93;5.95;;;16.20;77.10;;;;;;5037612;28;20042;-72
2022/10/25 10:37:32;;;;;;;8.00;5.50;;;16.10;77.30;;;;;;5042775;28;20103;-73
2022/10/25 10:40:21;;;;;;;12.68;6.28;;;16.20;77.50;;;;;;5020791;28;20060;-72
2022/10/25 10:42:46;;;;;;;12.15;6.45;;;16.20;77.50;;;;;;5054430;28;20385;-72
2022/10/25 10:45:17;;;;;;;12.70;7.15;;;16.20;77.60;;;;;;5057748;28;20045;-80
2022/10/25 10:47:45;;;;;;;12.07;6.72;;;16.20;77.70;;;;;;5042302;28;20463;-77
2022/10/25 10:50:19;;;;;;;14.63;6.93;;;16.20;77.50;;;;;;5033475;28;20083;-79
2022/10/25 10:52:51;;;;;;;13.20;6.65;;;16.30;77.40;;;;;;5033787;28;20048;-86
2022/10/25 10:55:35;;;;;;;12.38;6.32;;;16.20;77.30;;;;;;5051257;28;20046;-88
2022/10/25 10:58:15;;;;;;;12.85;6.75;;;16.20;76.90;;;;;;5017218;28;20084;-81
2022/10/25 11:00:48;;;;;;;13.07;6.82;;;16.30;77.40;;;;;;5016970;28;20037;-81
2022/10/25 11:03:37;;;;;;;14.65;7.03;;;16.30;77.10;;;;;;5033452;28;20384;-81
2022/10/25 11:06:14;;;;;;;13.70;6.18;;;16.40;76.90;;;;;;5016611;28;20099;-81
2022/10/25 11:08:41;;;;;;;11.77;6.25;;;16.40;77.00;;;;;;5032934;28;20124;-81
2022/10/25 11:11:23;;;;;;;10.13;6.45;;;16.40;76.90;;;;;;5027223;28;20516;-81
2022/10/25 11:13:59;;;;;;;10.73;6.80;;;16.50;76.40;;;;;;5028316;28;20523;-81
2022/10/25 11:16:35;;;;;;;12.00;6.68;;;16.50;76.30;;;;;;5044342;28;20048;-81
2022/10/25 11:19:16;;;;;;;13.15;6.53;;;16.50;76.20;;;;;;5043947;28;20064;-80
2022/10/25 11:22:20;;;;;;;9.70;5.80;;;16.50;75.90;;;;;;5042696;28;20055;-80
2022/10/25 11:25:37;;;;;;;12.45;6.38;;;16.60;75.80;;;;;;5060866;28;20128;-81
2022/10/25 11:28:05;;;;;;;12.48;6.15;;;16.60;75.70;;;;;;5034647;28;20809;-80
2022/10/25 11:30:38;;;;;;;11.07;6.38;;;16.60;75.80;;;;;;5032743;28;20041;-80
2022/10/25 11:33:46;;;;;;;14.85;6.47;;;16.60;75.30;;;;;;5038490;28;20461;-80
2022/10/25 11:36:32;;;;;;;11.27;5.53;;;16.70;75.10;;;;;;5024190;28;20048;-80
2022/10/25 11:39:06;;;;;;;11.70;6.03;;;16.70;75.10;;;;;;5023353;28;20037;-82
2022/10/25 11:41:44;;;;;;;12.10;5.18;;;16.60;74.90;;;;;;5016482;28;20265;-82
2022/10/25 11:44:48;;;;;;;11.88;5.65;;;16.70;74.70;;;;;;5016089;28;20091;-82
2022/10/25 11:47:47;;;;;;;10.30;5.00;;;16.70;74.60;;;;;;5045386;28;20056;-82
2022/10/25 11:50:37;;;;;;;13.85;5.20;;;16.70;74.90;;;;;;5036165;28;20124;-81
2022/10/25 11:53:03;;;;;;;8.98;4.13;;;16.70;74.80;;;;;;5034928;28;21965;-82
2022/10/25 11:55:49;;;;;;;10.88;5.13;;;16.80;74.70;;;;;;5048640;28;20034;-81
2022/10/25 11:58:33;;;;;;;11.60;4.95;;;16.80;74.10;;;;;;5032802;28;20041;-80
2022/10/25 12:01:35;;;;;;;12.00;5.38;;;16.80;74.00;;;;;;5016548;28;20034;-78
2022/10/25 12:04:04;;;;;;;9.40;4.18;;;16.80;73.50;;;;;;5035833;28;20115;-77
2022/10/25 12:06:50;;;;;;;10.70;4.25;;;16.80;73.80;;;;;;5032112;28;20040;-77
2022/10/25 12:09:54;;;;;;;7.97;4.18;;;16.80;73.50;;;;;;5028548;28;20491;-77
2022/10/25 12:12:25;;;;;;;10.48;4.05;;;16.80;73.60;;;;;;5015262;28;20042;-77
2022/10/25 12:14:56;;;;;;;7.03;3.42;;;16.90;74.00;;;;;;5053583;28;20049;-77
2022/10/25 12:17:24;;;;;;;10.32;4.10;;;16.90;73.90;;;;;;5048694;28;20033;-77
2022/10/25 12:19:53;;;;;;;8.77;3.78;;;16.90;73.70;;;;;;5062517;28;20116;-77
2022/10/25 12:22:35;;;;;;;7.97;3.33;;;16.90;73.60;;;;;;5066859;28;20527;-77
2022/10/25 12:25:05;;;;;;;7.20;3.53;;;17.00;73.70;;;;;;5031965;28;20049;-77
2022/10/25 12:27:32;;;;;;;9.15;3.42;;;17.00;73.40;;;;;;5031521;28;20033;-77
2022/10/25 12:30:05;;;;;;;9.05;3.38;;;17.00;73.20;;;;;;5042624;28;20041;-77
2022/10/25 12:33:09;;;;;;;7.80;3.50;;;17.10;73.20;;;;;;5015146;28;20041;-77
2022/10/25 12:35:43;;;;;;;8.17;3.87;;;17.10;73.00;;;;;;5033793;28;20042;-77
2022/10/25 12:38:16;;;;;;;;;;;17.10;73.10;;;;;;5032328;28;20296;-77
2022/10/25 12:40:46;;;;;;;10.23;4.22;;;17.10;73.80;;;;;;5049835;28;19921;-77
2022/10/25 12:43:32;;;;;;;10.00;4.32;;;17.20;73.60;;;;;;5043439;28;20049;-77
2022/10/25 12:46:09;;;;;;;8.18;3.55;;;17.20;73.00;;;;;;5014741;28;20064;-77
2022/10/25 12:49:02;;;;;;;10.80;4.80;;;17.20;73.10;;;;;;5031594;28;20558;-77
2022/10/25 12:52:01;;;;;;;9.65;3.67;;;17.30;72.70;;;;;;5022870;28;20045;-77
2022/10/25 12:54:38;;;;;;;9.48;3.72;;;17.30;72.60;;;;;;5040788;28;20382;-77
2022/10/25 12:57:24;;;;;;;8.48;3.92;;;17.30;72.50;;;;;;5031534;28;20507;-76